Time,TemperatureF,DewpointF,PressureIn,WindDirection,WindDirectionDegrees,WindSpeedMPH,WindSpeedGustMPH,Humidity,HourlyPrecipIn,Conditions,Clouds,dailyrainin,SoftwareType,DateUTC
2013-02-14 00:00:00,35.9,30.6,30.03,NW,323,1.0,2.0,81,0.00,,,0.07,Wunderground v.1.15,2013-02-14 05:00:00,
2013-02-14 00:05:00,35.9,30.9,30.03,NW,323,0.0,3.0,82,0.00,,,0.07,Wunderground v.1.15,2013-02-14 05:05:00,
2013-02-14 00:10:00,35.9,30.9,30.03,NW,323,2.0,3.0,82,0.00,,,0.00,Wunderground v.1.15,2013-02-14 05:10:00,
2013-02-14 00:15:00,35.9,30.9,30.03,NW,323,0.0,3.0,82,0.00,,,0.00,Wunderground v.1.15,2013-02-14 05:15:00,
2013-02-14 00:20:00,35.9,30.6,30.03,NW,323,0.0,0.0,81,0.00,,,0.00,Wunderground v.1.15,2013-02-14 05:20:00,
2013-02-14 00:25:00,35.9,30.9,30.03,NW,323,0.0,0.0,82,0.00,,,0.00,Wunderground v.1.15,2013-02-14 05:25:00,
2013-02-14 00:30:00,35.9,30.9,30.03,NW,323,0.0,0.0,82,0.00,,,0.00,Wunderground v.1.15,2013-02-14 05:30:00,
2013-02-14 00:35:00,35.9,30.9,30.03,NW,323,0.0,0.0,82,0.00,,,0.00,Wunderground v.1.15,2013-02-14 05:35:00,
2013-02-14 00:40:00,35.9,31.2,30.04,NW,323,0.0,0.0,83,0.00,,,0.00,Wunderground v.1.15,2013-02-14 05:40:00,
2013-02-14 00:45:00,35.9,31.2,30.04,NW,323,4.0,4.0,83,0.00,,,0.00,Wunderground v.1.15,2013-02-14 05:45:00,
2013-02-14 00:50:00,35.9,30.9,30.04,WNW,288,1.0,2.0,82,0.00,,,0.00,Wunderground v.1.15,2013-02-14 05:50:00,
2013-02-14 00:55:00,36.0,31.0,30.04,WNW,289,0.0,5.0,82,0.00,,,0.00,Wunderground v.1.15,2013-02-14 05:55:00,
2013-02-14 01:00:00,36.0,31.0,30.04,WNW,289,0.0,0.0,82,0.00,,,0.00,Wunderground v.1.15,2013-02-14 06:00:00,
2013-02-14 01:05:00,36.0,31.0,30.04,WNW,289,1.0,3.0,82,0.00,,,0.00,Wunderground v.1.15,2013-02-14 06:05:00,
2013-02-14 01:10:00,36.0,31.0,30.04,WNW,292,0.0,2.0,82,0.00,,,0.00,Wunderground v.1.15,2013-02-14 06:10:00,
2013-02-14 01:15:00,36.0,31.0,30.04,WNW,292,0.0,2.0,82,0.00,,,0.00,Wunderground v.1.15,2013-02-14 06:15:00,
2013-02-14 01:20:00,36.0,31.0,30.04,WNW,292,0.0,1.0,82,0.00,,,0.00,Wunderground v.1.15,2013-02-14 06:20:00,
2013-02-14 01:25:00,36.0,31.0,30.04,WNW,292,0.0,3.0,82,0.00,,,0.00,Wunderground v.1.15,2013-02-14 06:25:00,
2013-02-14 01:30:00,36.0,31.0,30.04,WNW,292,1.0,2.0,82,0.00,,,0.00,Wunderground v.1.15,2013-02-14 06:30:00,
2013-02-14 01:35:00,35.9,30.6,30.04,WNW,295,4.0,5.0,81,0.00,,,0.00,Wunderground v.1.15,2013-02-14 06:35:00,
2013-02-14 01:40:00,35.9,30.6,30.04,WNW,297,3.0,5.0,81,0.00,,,0.00,Wunderground v.1.15,2013-02-14 06:40:00,
2013-02-14 01:45:00,35.9,30.3,30.04,NW,309,2.0,9.0,80,0.00,,,0.00,Wunderground v.1.15,2013-02-14 06:45:00,
2013-02-14 01:50:00,35.9,30.3,30.04,NW,309,0.0,3.0,80,0.00,,,0.00,Wunderground v.1.15,2013-02-14 06:50:00,
2013-02-14 01:55:00,35.9,30.3,30.04,NW,309,0.0,3.0,80,0.00,,,0.00,Wunderground v.1.15,2013-02-14 06:55:00,
2013-02-14 02:00:00,35.9,30.3,30.04,NW,309,1.0,2.0,80,0.00,,,0.00,Wunderground v.1.15,2013-02-14 07:00:00,
2013-02-14 02:05:00,35.9,30.6,30.04,NW,309,0.0,3.0,81,0.00,,,0.00,Wunderground v.1.15,2013-02-14 07:05:00,
2013-02-14 02:10:00,36.0,30.7,30.04,NW,309,0.0,0.0,81,0.00,,,0.00,Wunderground v.1.15,2013-02-14 07:10:00,
2013-02-14 02:15:00,36.0,30.7,30.04,NW,309,0.0,0.0,81,0.00,,,0.00,Wunderground v.1.15,2013-02-14 07:15:00,
2013-02-14 02:20:00,36.0,30.7,30.04,NW,309,0.0,1.0,81,0.00,,,0.00,Wunderground v.1.15,2013-02-14 07:20:00,
2013-02-14 02:25:00,36.0,30.7,30.05,NW,309,0.0,1.0,81,0.00,,,0.00,Wunderground v.1.15,2013-02-14 07:25:00,
2013-02-14 02:30:00,36.0,30.7,30.05,NW,309,0.0,0.0,81,0.00,,,0.00,Wunderground v.1.15,2013-02-14 07:30:00,
2013-02-14 02:35:00,36.0,30.7,30.05,NW,309,0.0,0.0,81,0.00,,,0.00,Wunderground v.1.15,2013-02-14 07:35:00,
2013-02-14 02:40:00,35.9,30.3,30.05,NW,309,3.0,4.0,80,0.00,,,0.00,Wunderground v.1.15,2013-02-14 07:40:00,
2013-02-14 02:45:00,36.0,30.4,30.05,NW,309,3.0,6.0,80,0.00,,,0.00,Wunderground v.1.15,2013-02-14 07:45:00,
2013-02-14 02:50:00,36.0,29.8,30.05,NW,304,0.0,3.0,78,0.00,,,0.00,Wunderground v.1.15,2013-02-14 07:50:00,
2013-02-14 02:55:00,36.0,29.8,30.05,NW,304,0.0,3.0,78,0.00,,,0.00,Wunderground v.1.15,2013-02-14 07:55:00,
2013-02-14 03:00:00,36.0,29.8,30.05,NW,304,4.0,4.0,78,0.00,,,0.00,Wunderground v.1.15,2013-02-14 08:00:00,
2013-02-14 03:05:00,36.2,30.3,30.05,NW,304,3.0,5.0,79,0.00,,,0.00,Wunderground v.1.15,2013-02-14 08:05:00,
2013-02-14 03:10:00,36.0,29.5,30.05,NW,307,3.0,4.0,77,0.00,,,0.00,Wunderground v.1.15,2013-02-14 08:10:00,
2013-02-14 03:15:00,36.0,29.5,30.05,NW,307,3.0,4.0,77,0.00,,,0.00,Wunderground v.1.15,2013-02-14 08:15:00,
2013-02-14 03:20:00,36.0,29.5,30.05,NW,307,3.0,4.0,77,0.00,,,0.00,Wunderground v.1.15,2013-02-14 08:20:00,
2013-02-14 03:25:00,35.9,29.4,30.05,NW,307,2.0,4.0,77,0.00,,,0.00,Wunderground v.1.15,2013-02-14 08:25:00,
2013-02-14 03:30:00,35.9,28.7,30.05,NW,309,1.0,4.0,75,0.00,,,0.00,Wunderground v.1.15,2013-02-14 08:30:00,
2013-02-14 03:35:00,35.9,29.1,30.05,NW,309,0.0,4.0,76,0.00,,,0.00,Wunderground v.1.15,2013-02-14 08:35:00,
2013-02-14 03:40:00,35.9,29.4,30.05,NW,309,0.0,1.0,77,0.00,,,0.00,Wunderground v.1.15,2013-02-14 08:40:00,
2013-02-14 03:45:00,35.9,29.4,30.05,NW,309,0.0,5.0,77,0.00,,,0.00,Wunderground v.1.15,2013-02-14 08:45:00,
2013-02-14 03:50:00,35.9,29.4,30.05,NW,309,0.0,1.0,77,0.00,,,0.00,Wunderground v.1.15,2013-02-14 08:50:00,
2013-02-14 03:55:00,35.9,29.4,30.05,NW,309,3.0,3.0,77,0.00,,,0.00,Wunderground v.1.15,2013-02-14 08:55:00,
2013-02-14 04:00:00,35.8,29.0,30.05,NW,309,3.0,5.0,76,0.00,,,0.00,Wunderground v.1.15,2013-02-14 09:00:00,
2013-02-14 04:05:00,35.8,29.0,30.05,NW,308,3.0,8.0,76,0.00,,,0.00,Wunderground v.1.15,2013-02-14 09:05:00,
2013-02-14 04:10:00,35.8,28.6,30.05,NW,308,3.0,3.0,75,0.00,,,0.00,Wunderground v.1.15,2013-02-14 09:10:00,
2013-02-14 04:15:00,35.8,28.6,30.05,NW,307,4.0,6.0,75,0.00,,,0.00,Wunderground v.1.15,2013-02-14 09:15:00,
2013-02-14 04:20:00,35.8,28.6,30.05,NW,307,0.0,2.0,75,0.00,,,0.00,Wunderground v.1.15,2013-02-14 09:20:00,
2013-02-14 04:25:00,35.8,29.0,30.05,NW,307,0.0,2.0,76,0.00,,,0.00,Wunderground v.1.15,2013-02-14 09:25:00,
2013-02-14 04:30:00,35.8,29.0,30.05,NW,307,0.0,0.0,76,0.00,,,0.00,Wunderground v.1.15,2013-02-14 09:30:00,
2013-02-14 04:36:00,35.8,29.0,30.05,NW,307,0.0,0.0,76,0.00,,,0.00,Wunderground v.1.15,2013-02-14 09:36:00,
2013-02-14 04:40:00,35.6,28.5,30.05,NW,307,1.0,3.0,75,0.00,,,0.00,Wunderground v.1.15,2013-02-14 09:40:00,
2013-02-14 04:45:00,35.6,28.5,30.05,NW,307,4.0,5.0,75,0.00,,,0.00,Wunderground v.1.15,2013-02-14 09:45:00,
2013-02-14 04:50:00,35.5,28.4,30.05,NW,307,0.0,3.0,75,0.00,,,0.00,Wunderground v.1.15,2013-02-14 09:50:00,
2013-02-14 04:56:00,35.5,28.4,30.05,NW,307,2.0,5.0,75,0.00,,,0.00,Wunderground v.1.15,2013-02-14 09:56:00,
2013-02-14 05:01:00,35.3,28.2,30.05,NW,307,0.0,2.0,75,0.00,,,0.00,Wunderground v.1.15,2013-02-14 10:01:00,
2013-02-14 05:06:00,35.3,28.2,30.05,NW,308,1.0,5.0,75,0.00,,,0.00,Wunderground v.1.15,2013-02-14 10:06:00,
2013-02-14 05:11:00,35.3,28.2,30.06,NW,308,0.0,2.0,75,0.00,,,0.00,Wunderground v.1.15,2013-02-14 10:11:00,
2013-02-14 05:16:00,35.3,28.2,30.06,NW,308,0.0,2.0,75,0.00,,,0.00,Wunderground v.1.15,2013-02-14 10:16:00,
2013-02-14 05:21:00,35.3,28.5,30.06,NW,308,0.0,0.0,76,0.00,,,0.00,Wunderground v.1.15,2013-02-14 10:21:00,
2013-02-14 05:26:00,35.2,28.4,30.05,NW,307,2.0,4.0,76,0.00,,,0.00,Wunderground v.1.15,2013-02-14 10:26:00,
2013-02-14 05:31:00,35.2,28.4,30.05,NW,307,2.0,2.0,76,0.00,,,0.00,Wunderground v.1.15,2013-02-14 10:31:00,
2013-02-14 05:36:00,35.0,27.9,30.05,NW,307,2.0,4.0,75,0.00,,,0.00,Wunderground v.1.15,2013-02-14 10:36:00,
2013-02-14 05:41:00,34.9,27.8,30.05,NW,307,1.0,1.0,75,0.00,,,0.00,Wunderground v.1.15,2013-02-14 10:41:00,
2013-02-14 05:46:00,34.7,28.2,30.05,NW,307,2.0,3.0,77,0.00,,,0.00,Wunderground v.1.15,2013-02-14 10:46:00,
2013-02-14 05:51:00,34.6,27.8,30.05,NW,307,0.0,1.0,76,0.00,,,0.00,Wunderground v.1.15,2013-02-14 10:51:00,
2013-02-14 05:56:00,34.4,27.6,30.05,NW,307,0.0,2.0,76,0.00,,,0.00,Wunderground v.1.15,2013-02-14 10:56:00,
2013-02-14 06:01:00,34.3,28.2,30.05,NW,307,0.0,0.0,78,0.00,,,0.00,Wunderground v.1.15,2013-02-14 11:01:00,
2013-02-14 06:06:00,34.1,28.3,30.05,NW,307,0.0,0.0,79,0.00,,,0.00,Wunderground v.1.15,2013-02-14 11:06:00,
2013-02-14 06:11:00,33.8,28.0,30.06,NW,307,0.0,0.0,79,0.00,,,0.00,Wunderground v.1.15,2013-02-14 11:11:00,
2013-02-14 06:16:00,33.8,28.0,30.06,NW,307,0.0,0.0,79,0.00,,,0.00,Wunderground v.1.15,2013-02-14 11:16:00,
2013-02-14 06:21:00,33.8,27.7,30.06,NW,307,0.0,0.0,78,0.00,,,0.00,Wunderground v.1.15,2013-02-14 11:21:00,
2013-02-14 06:26:00,33.8,28.0,30.06,NW,307,0.0,0.0,79,0.00,,,0.00,Wunderground v.1.15,2013-02-14 11:26:00,
2013-02-14 06:31:00,33.8,27.7,30.06,NW,307,0.0,0.0,78,0.00,,,0.00,Wunderground v.1.15,2013-02-14 11:31:00,
2013-02-14 06:36:00,33.8,27.4,30.06,NW,307,0.0,0.0,77,0.00,,,0.00,Wunderground v.1.15,2013-02-14 11:36:00,
2013-02-14 06:41:00,33.7,27.3,30.06,NW,307,0.0,0.0,77,0.00,,,0.00,Wunderground v.1.15,2013-02-14 11:41:00,
2013-02-14 06:46:00,33.5,27.4,30.06,NW,307,0.0,0.0,78,0.00,,,0.00,Wunderground v.1.15,2013-02-14 11:46:00,
2013-02-14 06:51:00,33.4,27.3,30.06,NW,307,0.0,0.0,78,0.00,,,0.00,Wunderground v.1.15,2013-02-14 11:51:00,
2013-02-14 06:56:00,33.1,27.0,30.07,NW,307,0.0,0.0,78,0.00,,,0.00,Wunderground v.1.15,2013-02-14 11:56:00,
2013-02-14 07:01:00,32.9,27.1,30.07,NW,307,0.0,0.0,79,0.00,,,0.00,Wunderground v.1.15,2013-02-14 12:01:00,
2013-02-14 07:06:00,32.8,27.0,30.07,NW,307,0.0,0.0,79,0.00,,,0.00,Wunderground v.1.15,2013-02-14 12:06:00,
2013-02-14 07:11:00,32.5,27.6,30.07,NW,307,0.0,0.0,82,0.00,,,0.00,Wunderground v.1.15,2013-02-14 12:11:00,
2013-02-14 07:16:00,32.2,27.0,30.07,NW,307,0.0,0.0,81,0.00,,,0.00,Wunderground v.1.15,2013-02-14 12:16:00,
2013-02-14 07:21:00,32.2,27.3,30.07,NW,307,0.0,0.0,82,0.00,,,0.00,Wunderground v.1.15,2013-02-14 12:21:00,
2013-02-14 07:26:00,32.1,27.2,30.09,NW,307,0.0,0.0,82,0.00,,,0.00,Wunderground v.1.15,2013-02-14 12:26:00,
2013-02-14 07:31:00,32.1,27.2,30.09,NW,307,0.0,0.0,82,0.00,,,0.00,Wunderground v.1.15,2013-02-14 12:31:00,
2013-02-14 07:36:00,32.1,26.9,30.09,NW,307,0.0,0.0,81,0.00,,,0.00,Wunderground v.1.15,2013-02-14 12:36:00,
2013-02-14 07:41:00,32.2,27.0,30.10,NW,307,0.0,0.0,81,0.00,,,0.00,Wunderground v.1.15,2013-02-14 12:41:00,
2013-02-14 07:46:00,32.2,27.3,30.10,NW,307,0.0,0.0,82,0.00,,,0.00,Wunderground v.1.15,2013-02-14 12:46:00,
2013-02-14 07:51:00,32.1,27.2,30.10,NW,307,0.0,0.0,82,0.00,,,0.00,Wunderground v.1.15,2013-02-14 12:51:00,
2013-02-14 07:56:00,32.4,28.1,30.11,NW,307,0.0,0.0,84,0.00,,,0.00,Wunderground v.1.15,2013-02-14 12:56:00,
2013-02-14 08:01:00,32.9,28.6,30.11,NW,307,0.0,0.0,84,0.00,,,0.00,Wunderground v.1.15,2013-02-14 13:01:00,
2013-02-14 08:06:00,33.4,28.8,30.11,NW,307,0.0,0.0,83,0.00,,,0.00,Wunderground v.1.15,2013-02-14 13:06:00,
2013-02-14 08:11:00,33.8,29.2,30.10,NW,307,0.0,0.0,83,0.00,,,0.00,Wunderground v.1.15,2013-02-14 13:11:00,
2013-02-14 08:16:00,34.1,29.2,30.10,NW,307,0.0,0.0,82,0.00,,,0.00,Wunderground v.1.15,2013-02-14 13:16:00,
2013-02-14 08:21:00,34.1,28.9,30.10,NW,307,0.0,0.0,81,0.00,,,0.00,Wunderground v.1.15,2013-02-14 13:21:00,
2013-02-14 08:26:00,34.3,29.1,30.10,NW,307,0.0,0.0,81,0.00,,,0.00,Wunderground v.1.15,2013-02-14 13:26:00,
2013-02-14 08:31:00,35.0,29.8,30.10,NW,307,0.0,0.0,81,0.00,,,0.00,Wunderground v.1.15,2013-02-14 13:31:00,
2013-02-14 08:36:00,35.9,30.0,30.10,NW,307,0.0,0.0,79,0.00,,,0.00,Wunderground v.1.15,2013-02-14 13:36:00,
2013-02-14 08:41:00,36.6,30.1,30.11,NW,307,0.0,0.0,77,0.00,,,0.00,Wunderground v.1.15,2013-02-14 13:41:00,
2013-02-14 08:46:00,37.0,29.8,30.11,NW,307,0.0,0.0,75,0.00,,,0.00,Wunderground v.1.15,2013-02-14 13:46:00,
2013-02-14 08:51:00,37.5,30.0,30.11,NW,307,0.0,0.0,74,0.00,,,0.00,Wunderground v.1.15,2013-02-14 13:51:00,
2013-02-14 08:56:00,37.3,29.4,30.11,NW,307,0.0,3.0,73,0.00,,,0.00,Wunderground v.1.15,2013-02-14 13:56:00,
2013-02-14 09:01:00,37.8,29.9,30.11,NW,307,3.0,3.0,73,0.00,,,0.00,Wunderground v.1.15,2013-02-14 14:01:00,
2013-02-14 09:06:00,37.9,29.3,30.11,NW,307,0.0,3.0,71,0.00,,,0.00,Wunderground v.1.15,2013-02-14 14:06:00,
2013-02-14 09:11:00,37.9,30.0,30.11,NW,307,0.0,0.0,73,0.00,,,0.00,Wunderground v.1.15,2013-02-14 14:11:00,
2013-02-14 09:16:00,38.2,29.6,30.11,NW,307,0.0,2.0,71,0.00,,,0.00,Wunderground v.1.15,2013-02-14 14:16:00,
2013-02-14 09:21:00,38.6,30.4,30.11,NW,307,0.0,2.0,72,0.00,,,0.00,Wunderground v.1.15,2013-02-14 14:21:00,
2013-02-14 09:26:00,38.9,29.9,30.11,NW,307,0.0,2.0,70,0.00,,,0.00,Wunderground v.1.15,2013-02-14 14:26:00,
2013-02-14 09:31:00,38.8,30.2,30.11,NW,311,3.0,8.0,71,0.00,,,0.00,Wunderground v.1.15,2013-02-14 14:31:00,
2013-02-14 09:36:00,38.5,30.6,30.11,NW,311,2.0,8.0,73,0.00,,,0.00,Wunderground v.1.15,2013-02-14 14:36:00,
2013-02-14 09:41:00,38.3,30.4,30.11,NW,311,0.0,2.0,73,0.00,,,0.00,Wunderground v.1.15,2013-02-14 14:41:00,
2013-02-14 09:46:00,38.5,30.6,30.11,NW,311,0.0,3.0,73,0.00,,,0.00,Wunderground v.1.15,2013-02-14 14:46:00,
2013-02-14 09:51:00,38.5,30.6,30.11,NW,311,0.0,0.0,73,0.00,,,0.00,Wunderground v.1.15,2013-02-14 14:51:00,
2013-02-14 09:56:00,38.9,32.0,30.11,NW,311,1.0,2.0,76,0.00,,,0.00,Wunderground v.1.15,2013-02-14 14:56:00,
2013-02-14 10:01:00,39.8,32.5,30.11,NW,311,2.0,5.0,75,0.00,,,0.00,Wunderground v.1.15,2013-02-14 15:01:00,
2013-02-14 10:06:00,40.3,32.7,30.11,NW,311,0.0,5.0,74,0.00,,,0.00,Wunderground v.1.15,2013-02-14 15:06:00,
2013-02-14 10:11:00,41.2,33.2,30.10,NW,311,2.0,5.0,73,0.00,,,0.00,Wunderground v.1.15,2013-02-14 15:11:00,
2013-02-14 10:16:00,40.9,32.6,30.10,NW,309,3.0,5.0,72,0.00,,,0.00,Wunderground v.1.15,2013-02-14 15:16:00,
2013-02-14 10:21:00,41.1,32.8,30.10,NW,309,0.0,2.0,72,0.00,,,0.00,Wunderground v.1.15,2013-02-14 15:21:00,
2013-02-14 10:26:00,42.1,33.4,30.09,South,169,0.0,5.0,71,0.00,,,0.00,Wunderground v.1.15,2013-02-14 15:26:00,
2013-02-14 10:31:00,42.6,33.1,30.09,South,169,0.0,2.0,69,0.00,,,0.00,Wunderground v.1.15,2013-02-14 15:31:00,
2013-02-14 10:36:00,42.9,33.1,30.09,South,169,0.0,4.0,68,0.00,,,0.00,Wunderground v.1.15,2013-02-14 15:36:00,
2013-02-14 10:41:00,43.1,33.3,30.08,South,169,0.0,1.0,68,0.00,,,0.01,Wunderground v.1.15,2013-02-14 15:41:00,
2013-02-14 10:46:00,43.6,34.1,30.08,South,169,0.0,4.0,69,0.00,,,0.01,Wunderground v.1.15,2013-02-14 15:46:00,
2013-02-14 10:51:00,44.3,33.3,30.08,SSE,161,0.0,5.0,65,0.00,,,0.01,Wunderground v.1.15,2013-02-14 15:51:00,
2013-02-14 10:56:00,44.6,33.9,30.07,SSE,150,0.0,5.0,66,0.00,,,0.01,Wunderground v.1.15,2013-02-14 15:56:00,
2013-02-14 11:01:00,44.5,33.8,30.07,East,99,2.0,4.0,66,0.00,,,0.01,Wunderground v.1.15,2013-02-14 16:01:00,
2013-02-14 11:06:00,44.5,34.2,30.07,East,101,1.0,5.0,67,0.00,,,0.01,Wunderground v.1.15,2013-02-14 16:06:00,
2013-02-14 11:11:00,44.1,33.1,30.07,ESE,107,4.0,9.0,65,0.00,,,0.01,Wunderground v.1.15,2013-02-14 16:11:00,
2013-02-14 11:16:00,43.5,33.3,30.07,ESE,108,2.0,9.0,67,0.00,,,0.01,Wunderground v.1.15,2013-02-14 16:16:00,
2013-02-14 11:21:00,43.3,33.4,30.07,ESE,108,2.0,5.0,68,0.00,,,0.01,Wunderground v.1.15,2013-02-14 16:21:00,
2013-02-14 11:26:00,43.5,33.3,30.08,ESE,109,1.0,5.0,67,0.00,,,0.01,Wunderground v.1.15,2013-02-14 16:26:00,
2013-02-14 11:31:00,44.2,33.2,30.08,ESE,109,0.0,3.0,65,0.00,,,0.01,Wunderground v.1.15,2013-02-14 16:31:00,
2013-02-14 11:36:00,45.4,34.3,30.08,SE,126,7.0,9.0,65,0.00,,,0.01,Wunderground v.1.15,2013-02-14 16:36:00,
2013-02-14 11:41:00,46.0,34.5,30.08,SSE,147,3.0,4.0,64,0.00,,,0.01,Wunderground v.1.15,2013-02-14 16:41:00,
2013-02-14 11:46:00,46.0,33.7,30.08,SE,145,9.0,12.0,62,0.00,,,0.01,Wunderground v.1.15,2013-02-14 16:46:00,
2013-02-14 11:51:00,45.5,33.2,30.08,ESE,111,4.0,11.0,62,0.00,,,0.01,Wunderground v.1.15,2013-02-14 16:51:00,
2013-02-14 11:56:00,45.8,35.1,30.08,SE,134,1.0,11.0,66,0.00,,,0.01,Wunderground v.1.15,2013-02-14 16:56:00,
2013-02-14 12:01:00,45.5,33.6,30.08,ESE,111,5.0,7.0,63,0.00,,,0.01,Wunderground v.1.15,2013-02-14 17:01:00,
2013-02-14 12:06:00,45.7,34.6,30.08,ESE,105,7.0,9.0,65,0.00,,,0.01,Wunderground v.1.15,2013-02-14 17:06:00,
2013-02-14 12:11:00,45.2,33.7,30.08,ESE,104,3.0,5.0,64,0.00,,,0.01,Wunderground v.1.15,2013-02-14 17:11:00,
2013-02-14 12:16:00,44.3,32.9,30.08,SE,129,9.0,9.0,64,0.00,,,0.01,Wunderground v.1.15,2013-02-14 17:16:00,
2013-02-14 12:21:00,44.3,33.3,30.08,East,94,5.0,7.0,65,0.00,,,0.01,Wunderground v.1.15,2013-02-14 17:21:00,
2013-02-14 12:26:00,46.1,35.4,30.09,East,96,1.0,7.0,66,0.00,,,0.01,Wunderground v.1.15,2013-02-14 17:26:00,
2013-02-14 12:31:00,47.0,35.0,30.09,East,79,4.0,7.0,63,0.00,,,0.01,Wunderground v.1.15,2013-02-14 17:31:00,
2013-02-14 12:36:00,47.3,35.3,30.09,East,86,8.0,13.0,63,0.00,,,0.01,Wunderground v.1.15,2013-02-14 17:36:00,
2013-02-14 12:41:00,47.1,35.1,30.08,East,101,7.0,12.0,63,0.00,,,0.01,Wunderground v.1.15,2013-02-14 17:41:00,
2013-02-14 12:46:00,47.0,34.2,30.08,ESE,123,3.0,12.0,61,0.00,,,0.01,Wunderground v.1.15,2013-02-14 17:46:00,
2013-02-14 12:51:00,46.8,34.5,30.08,ESE,123,4.0,8.0,62,0.00,,,0.01,Wunderground v.1.15,2013-02-14 17:51:00,
2013-02-14 12:56:00,47.4,35.4,30.08,East,94,8.0,8.0,63,0.00,,,0.01,Wunderground v.1.15,2013-02-14 17:56:00,
2013-02-14 13:01:00,49.5,36.2,30.08,SE,143,5.0,5.0,60,0.00,,,0.01,Wunderground v.1.15,2013-02-14 18:01:00,
2013-02-14 13:06:00,49.1,35.8,30.08,SE,143,0.0,6.0,60,0.00,,,0.01,Wunderground v.1.15,2013-02-14 18:06:00,
2013-02-14 13:11:00,48.3,34.6,30.07,WNW,291,0.0,3.0,59,0.00,,,0.01,Wunderground v.1.15,2013-02-14 18:11:00,
2013-02-14 13:16:00,48.5,34.4,30.07,WSW,240,1.0,5.0,58,0.00,,,0.01,Wunderground v.1.15,2013-02-14 18:16:00,
2013-02-14 13:21:00,48.3,33.3,30.07,WSW,240,0.0,4.0,56,0.00,,,0.01,Wunderground v.1.15,2013-02-14 18:21:00,
2013-02-14 13:26:00,48.0,33.9,30.06,WSW,240,0.0,4.0,58,0.00,,,0.01,Wunderground v.1.15,2013-02-14 18:26:00,
2013-02-14 13:31:00,48.3,35.9,30.06,SW,224,4.0,4.0,62,0.00,,,0.01,Wunderground v.1.15,2013-02-14 18:31:00,
2013-02-14 13:36:00,48.0,34.8,30.06,SE,140,6.0,9.0,60,0.00,,,0.01,Wunderground v.1.15,2013-02-14 18:36:00,
2013-02-14 13:41:00,47.9,34.7,30.04,SE,141,1.0,3.0,60,0.00,,,0.01,Wunderground v.1.15,2013-02-14 18:41:00,
2013-02-14 13:46:00,49.8,35.6,30.04,SE,143,7.0,10.0,58,0.00,,,0.01,Wunderground v.1.15,2013-02-14 18:46:00,
2013-02-14 13:51:00,49.2,34.6,30.04,SE,134,0.0,4.0,57,0.00,,,0.01,Wunderground v.1.15,2013-02-14 18:51:00,
2013-02-14 13:56:00,49.1,35.4,30.03,SE,146,8.0,10.0,59,0.00,,,0.01,Wunderground v.1.15,2013-02-14 18:56:00,
2013-02-14 14:01:00,49.2,35.0,30.03,SE,146,0.0,7.0,58,0.00,,,0.01,Wunderground v.1.15,2013-02-14 19:01:00,
2013-02-14 14:06:00,50.1,35.9,30.03,SE,146,0.0,7.0,58,0.00,,,0.01,Wunderground v.1.15,2013-02-14 19:06:00,
2013-02-14 14:11:00,50.8,36.5,30.02,SE,146,0.0,2.0,58,0.00,,,0.01,Wunderground v.1.15,2013-02-14 19:11:00,
2013-02-14 14:16:00,51.6,35.5,30.02,NE,50,0.0,7.0,54,0.00,,,0.01,Wunderground v.1.15,2013-02-14 19:16:00,
2013-02-14 14:21:00,51.6,35.5,30.02,ESE,112,0.0,2.0,54,0.00,,,0.01,Wunderground v.1.15,2013-02-14 19:21:00,
2013-02-14 14:26:00,52.2,33.1,30.02,WNW,293,4.0,10.0,48,0.00,,,0.01,Wunderground v.1.15,2013-02-14 19:26:00,
2013-02-14 14:31:00,52.2,32.0,30.02,WNW,293,0.0,3.0,46,0.00,,,0.01,Wunderground v.1.15,2013-02-14 19:31:00,
2013-02-14 14:36:00,52.6,32.4,30.02,SW,229,5.0,6.0,46,0.00,,,0.01,Wunderground v.1.15,2013-02-14 19:36:00,
2013-02-14 14:41:00,53.1,32.3,30.03,SW,232,0.0,4.0,45,0.00,,,0.01,Wunderground v.1.15,2013-02-14 19:41:00,
2013-02-14 14:46:00,53.6,32.8,30.03,SSW,195,0.0,6.0,45,0.00,,,0.01,Wunderground v.1.15,2013-02-14 19:46:00,
2013-02-14 14:51:00,53.9,31.9,30.03,SW,221,2.0,6.0,43,0.00,,,0.01,Wunderground v.1.15,2013-02-14 19:51:00,
2013-02-14 14:56:00,53.8,32.4,30.02,SW,225,1.0,6.0,44,0.00,,,0.01,Wunderground v.1.15,2013-02-14 19:56:00,
2013-02-14 15:01:00,53.9,33.0,30.02,SW,224,0.0,4.0,45,0.00,,,0.01,Wunderground v.1.15,2013-02-14 20:01:00,
2013-02-14 15:06:00,54.5,33.6,30.02,SW,224,0.0,4.0,45,0.00,,,0.01,Wunderground v.1.15,2013-02-14 20:06:00,
2013-02-14 15:11:00,54.5,32.4,30.01,SW,225,1.0,2.0,43,0.00,,,0.01,Wunderground v.1.15,2013-02-14 20:11:00,
2013-02-14 15:16:00,53.9,31.9,30.01,West,271,0.0,6.0,43,0.00,,,0.01,Wunderground v.1.15,2013-02-14 20:16:00,
2013-02-14 15:21:00,53.8,31.8,30.01,West,271,0.0,4.0,43,0.00,,,0.01,Wunderground v.1.15,2013-02-14 20:21:00,
2013-02-14 15:26:00,53.8,31.8,30.01,West,267,3.0,7.0,43,0.00,,,0.01,Wunderground v.1.15,2013-02-14 20:26:00,
2013-02-14 15:31:00,54.1,32.1,30.01,West,276,4.0,9.0,43,0.00,,,0.01,Wunderground v.1.15,2013-02-14 20:31:00,
2013-02-14 15:36:00,53.9,31.9,30.01,West,262,6.0,9.0,43,0.00,,,0.01,Wunderground v.1.15,2013-02-14 20:36:00,
2013-02-14 15:41:00,53.8,30.0,30.01,West,281,0.0,6.0,40,0.00,,,0.01,Wunderground v.1.15,2013-02-14 20:41:00,
2013-02-14 15:46:00,53.9,31.3,30.01,NNW,340,8.0,8.0,42,0.00,,,0.01,Wunderground v.1.15,2013-02-14 20:46:00,
2013-02-14 15:51:00,54.1,32.1,30.01,NW,316,3.0,4.0,43,0.00,,,0.01,Wunderground v.1.15,2013-02-14 20:51:00,
2013-02-14 15:56:00,53.9,30.7,30.02,NW,312,0.0,6.0,41,0.00,,,0.01,Wunderground v.1.15,2013-02-14 20:56:00,
2013-02-14 16:01:00,54.2,30.4,30.02,NW,312,0.0,2.0,40,0.00,,,0.01,Wunderground v.1.15,2013-02-14 21:01:00,
2013-02-14 16:06:00,53.9,30.1,30.02,WNW,297,2.0,7.0,40,0.00,,,0.01,Wunderground v.1.15,2013-02-14 21:06:00,
2013-02-14 16:11:00,53.8,30.6,30.02,NW,316,3.0,7.0,41,0.00,,,0.01,Wunderground v.1.15,2013-02-14 21:11:00,
2013-02-14 16:16:00,53.8,30.0,30.02,West,271,1.0,7.0,40,0.00,,,0.01,Wunderground v.1.15,2013-02-14 21:16:00,
2013-02-14 16:21:00,53.9,31.9,30.02,NW,312,1.0,5.0,43,0.00,,,0.01,Wunderground v.1.15,2013-02-14 21:21:00,
2013-02-14 16:26:00,53.9,30.7,30.03,NW,312,0.0,5.0,41,0.00,,,0.01,Wunderground v.1.15,2013-02-14 21:26:00,
2013-02-14 16:31:00,54.2,30.4,30.03,SW,236,0.0,2.0,40,0.00,,,0.01,Wunderground v.1.15,2013-02-14 21:31:00,
2013-02-14 16:36:00,53.9,30.1,30.03,West,274,5.0,9.0,40,0.00,,,0.01,Wunderground v.1.15,2013-02-14 21:36:00,
2013-02-14 16:41:00,53.6,31.0,30.03,NW,307,5.0,11.0,42,0.00,,,0.01,Wunderground v.1.15,2013-02-14 21:41:00,
2013-02-14 16:46:00,53.3,29.6,30.03,NW,306,0.0,11.0,40,0.00,,,0.01,Wunderground v.1.15,2013-02-14 21:46:00,
2013-02-14 16:51:00,53.3,30.8,30.03,NW,306,0.0,3.0,42,0.00,,,0.01,Wunderground v.1.15,2013-02-14 21:51:00,
2013-02-14 16:56:00,53.5,31.0,30.03,NW,312,0.0,6.0,42,0.00,,,0.01,Wunderground v.1.15,2013-02-14 21:56:00,
2013-02-14 17:01:00,53.2,30.7,30.03,NW,311,4.0,7.0,42,0.00,,,0.01,Wunderground v.1.15,2013-02-14 22:01:00,
2013-02-14 17:06:00,52.8,31.5,30.03,NW,311,2.0,9.0,44,0.00,,,0.01,Wunderground v.1.15,2013-02-14 22:06:00,
2013-02-14 17:11:00,52.8,32.0,30.03,NW,311,4.0,5.0,45,0.00,,,0.01,Wunderground v.1.15,2013-02-14 22:11:00,
2013-02-14 17:16:00,52.8,30.9,30.03,NW,311,3.0,5.0,43,0.00,,,0.01,Wunderground v.1.15,2013-02-14 22:16:00,
2013-02-14 17:21:00,52.3,29.9,30.03,NW,311,1.0,6.0,42,0.00,,,0.01,Wunderground v.1.15,2013-02-14 22:21:00,
2013-02-14 17:26:00,52.3,30.4,30.04,NW,311,3.0,7.0,43,0.00,,,0.01,Wunderground v.1.15,2013-02-14 22:26:00,
2013-02-14 17:31:00,52.0,30.7,30.04,WNW,294,6.0,8.0,44,0.00,,,0.01,Wunderground v.1.15,2013-02-14 22:31:00,
2013-02-14 17:36:00,51.7,31.0,30.04,WNW,292,0.0,8.0,45,0.00,,,0.01,Wunderground v.1.15,2013-02-14 22:36:00,
2013-02-14 17:41:00,51.4,30.2,30.04,WNW,292,0.0,2.0,44,0.00,,,0.01,Wunderground v.1.15,2013-02-14 22:41:00,
2013-02-14 17:46:00,51.1,30.5,30.04,NW,311,2.0,7.0,45,0.00,,,0.01,Wunderground v.1.15,2013-02-14 22:46:00,
2013-02-14 17:51:00,51.0,30.9,30.04,SW,226,0.0,6.0,46,0.00,,,0.01,Wunderground v.1.15,2013-02-14 22:51:00,
2013-02-14 17:56:00,50.8,31.3,30.04,SW,229,3.0,6.0,47,0.00,,,0.01,Wunderground v.1.15,2013-02-14 22:56:00,
2013-02-14 18:01:00,50.5,31.5,30.04,SW,233,1.0,3.0,48,0.00,,,0.01,Wunderground v.1.15,2013-02-14 23:01:00,
2013-02-14 18:06:00,50.2,31.8,30.04,SW,233,0.0,4.0,49,0.00,,,0.01,Wunderground v.1.15,2013-02-14 23:06:00,
2013-02-14 18:11:00,49.9,31.5,30.04,SW,233,1.0,3.0,49,0.00,,,0.01,Wunderground v.1.15,2013-02-14 23:11:00,
2013-02-14 18:16:00,49.6,31.7,30.04,SW,233,1.0,3.0,50,0.00,,,0.01,Wunderground v.1.15,2013-02-14 23:16:00,
2013-02-14 18:21:00,49.4,32.0,30.04,SW,233,0.0,0.0,51,0.00,,,0.01,Wunderground v.1.15,2013-02-14 23:21:00,
2013-02-14 18:26:00,48.9,32.0,30.05,SW,233,0.0,4.0,52,0.00,,,0.01,Wunderground v.1.15,2013-02-14 23:26:00,
2013-02-14 18:32:00,48.5,32.6,30.05,SW,233,0.0,0.0,54,0.00,,,0.01,Wunderground v.1.15,2013-02-14 23:32:00,
2013-02-14 18:37:00,48.0,32.1,30.05,SW,233,1.0,3.0,54,0.00,,,0.01,Wunderground v.1.15,2013-02-14 23:37:00,
2013-02-14 18:42:00,47.6,32.2,30.06,SW,233,0.0,0.0,55,0.00,,,0.01,Wunderground v.1.15,2013-02-14 23:42:00,
2013-02-14 18:47:00,47.3,32.4,30.06,SW,233,0.0,1.0,56,0.00,,,0.01,Wunderground v.1.15,2013-02-14 23:47:00,
2013-02-14 18:52:00,47.0,33.0,30.06,SW,233,0.0,1.0,58,0.00,,,0.01,Wunderground v.1.15,2013-02-14 23:52:00,
2013-02-14 18:57:00,47.0,33.0,30.06,SW,233,0.0,1.0,58,0.00,,,0.01,Wunderground v.1.15,2013-02-14 23:57:00,
2013-02-14 19:02:00,46.7,32.7,30.06,SW,233,0.0,0.0,58,0.00,,,0.01,Wunderground v.1.15,2013-02-15 00:02:00,
2013-02-14 19:07:00,46.4,32.8,30.06,SW,233,2.0,3.0,59,0.00,,,0.01,Wunderground v.1.15,2013-02-15 00:07:00,
2013-02-14 19:12:00,46.2,32.7,30.07,SW,233,0.0,0.0,59,0.00,,,0.01,Wunderground v.1.15,2013-02-15 00:12:00,
2013-02-14 19:17:00,46.0,32.9,30.07,SW,233,2.0,2.0,60,0.00,,,0.01,Wunderground v.1.15,2013-02-15 00:17:00,
2013-02-14 19:22:00,45.8,33.1,30.07,SW,233,0.0,4.0,61,0.00,,,0.01,Wunderground v.1.15,2013-02-15 00:22:00,
2013-02-14 19:27:00,45.7,33.4,30.07,SW,233,0.0,4.0,62,0.00,,,0.01,Wunderground v.1.15,2013-02-15 00:27:00,
2013-02-14 19:32:00,45.5,32.8,30.07,SW,233,0.0,1.0,61,0.00,,,0.01,Wunderground v.1.15,2013-02-15 00:32:00,
2013-02-14 19:37:00,45.4,33.1,30.07,SW,233,0.0,3.0,62,0.00,,,0.01,Wunderground v.1.15,2013-02-15 00:37:00,
2013-02-14 19:42:00,45.1,32.8,30.07,SW,233,0.0,0.0,62,0.00,,,0.01,Wunderground v.1.15,2013-02-15 00:42:00,
2013-02-14 19:47:00,44.9,33.1,30.07,SW,233,0.0,3.0,63,0.00,,,0.01,Wunderground v.1.15,2013-02-15 00:47:00,
2013-02-14 19:52:00,44.6,33.2,30.07,SW,233,0.0,3.0,64,0.00,,,0.01,Wunderground v.1.15,2013-02-15 00:52:00,
2013-02-14 19:57:00,44.2,33.2,30.07,SW,233,1.0,3.0,65,0.00,,,0.01,Wunderground v.1.15,2013-02-15 00:57:00,
2013-02-14 20:02:00,44.2,33.2,30.07,SW,233,1.0,5.0,65,0.00,,,0.01,Wunderground v.1.15,2013-02-15 01:02:00,
2013-02-14 20:07:00,44.1,33.5,30.07,SW,234,5.0,5.0,66,0.00,,,0.01,Wunderground v.1.15,2013-02-15 01:07:00,
2013-02-14 20:12:00,44.1,33.1,30.07,SW,234,2.0,5.0,65,0.00,,,0.01,Wunderground v.1.15,2013-02-15 01:12:00,
2013-02-14 20:17:00,43.9,33.3,30.07,WSW,243,3.0,6.0,66,0.00,,,0.01,Wunderground v.1.15,2013-02-15 01:17:00,
2013-02-14 20:22:00,43.9,33.3,30.07,WSW,244,1.0,3.0,66,0.00,,,0.01,Wunderground v.1.15,2013-02-15 01:22:00,
2013-02-14 20:27:00,43.8,33.6,30.07,WSW,244,3.0,5.0,67,0.00,,,0.01,Wunderground v.1.15,2013-02-15 01:27:00,
2013-02-14 20:32:00,43.6,33.4,30.07,WSW,251,4.0,6.0,67,0.00,,,0.01,Wunderground v.1.15,2013-02-15 01:32:00,
2013-02-14 20:37:00,43.8,33.6,30.07,WSW,255,2.0,6.0,67,0.00,,,0.01,Wunderground v.1.15,2013-02-15 01:37:00,
2013-02-14 20:42:00,43.6,33.4,30.07,West,269,2.0,7.0,67,0.00,,,0.01,Wunderground v.1.15,2013-02-15 01:42:00,
2013-02-14 20:47:00,43.3,33.1,30.07,WNW,290,4.0,10.0,67,0.00,,,0.01,Wunderground v.1.15,2013-02-15 01:47:00,
2013-02-14 20:52:00,43.3,33.1,30.07,WNW,292,5.0,6.0,67,0.00,,,0.01,Wunderground v.1.15,2013-02-15 01:52:00,
2013-02-14 20:57:00,43.5,33.3,30.06,WNW,293,3.0,6.0,67,0.00,,,0.01,Wunderground v.1.15,2013-02-15 01:57:00,
2013-02-14 21:02:00,43.6,33.0,30.06,WNW,297,3.0,6.0,66,0.00,,,0.01,Wunderground v.1.15,2013-02-15 02:02:00,
2013-02-14 21:07:00,43.5,33.3,30.06,WNW,298,4.0,6.0,67,0.00,,,0.01,Wunderground v.1.15,2013-02-15 02:07:00,
2013-02-14 21:12:00,43.6,33.0,30.06,WNW,302,5.0,6.0,66,0.00,,,0.01,Wunderground v.1.15,2013-02-15 02:12:00,
2013-02-14 21:17:00,43.6,33.0,30.06,WNW,302,4.0,6.0,66,0.00,,,0.01,Wunderground v.1.15,2013-02-15 02:17:00,
2013-02-14 21:22:00,43.9,32.9,30.06,NW,306,5.0,6.0,65,0.00,,,0.01,Wunderground v.1.15,2013-02-15 02:22:00,
2013-02-14 21:27:00,44.1,33.1,30.06,NW,307,4.0,6.0,65,0.00,,,0.01,Wunderground v.1.15,2013-02-15 02:27:00,
2013-02-14 21:31:00,43.9,32.9,30.06,WNW,300,0.0,6.0,65,0.00,,,0.01,Wunderground v.1.15,2013-02-15 02:31:00,
2013-02-14 21:36:00,43.9,32.9,30.06,NW,306,6.0,8.0,65,0.00,,,0.01,Wunderground v.1.15,2013-02-15 02:36:00,
2013-02-14 21:41:00,43.9,32.9,30.06,NW,306,5.0,5.0,65,0.00,,,0.01,Wunderground v.1.15,2013-02-15 02:41:00,
2013-02-14 21:46:00,43.9,32.9,30.06,NW,306,4.0,6.0,65,0.00,,,0.01,Wunderground v.1.15,2013-02-15 02:46:00,
2013-02-14 21:51:00,43.9,32.5,30.06,NW,309,3.0,5.0,64,0.00,,,0.01,Wunderground v.1.15,2013-02-15 02:51:00,
2013-02-14 21:57:00,43.9,32.5,30.06,NW,309,2.0,7.0,64,0.00,,,0.01,Wunderground v.1.15,2013-02-15 02:57:00,
2013-02-14 22:02:00,43.9,32.9,30.06,NW,309,3.0,4.0,65,0.00,,,0.01,Wunderground v.1.15,2013-02-15 03:02:00,
2013-02-14 22:07:00,43.8,32.4,30.06,NW,309,1.0,5.0,64,0.00,,,0.01,Wunderground v.1.15,2013-02-15 03:07:00,
2013-02-14 22:12:00,43.6,32.6,30.07,NW,310,3.0,6.0,65,0.00,,,0.01,Wunderground v.1.15,2013-02-15 03:12:00,
2013-02-14 22:17:00,43.8,32.4,30.07,NW,311,5.0,6.0,64,0.00,,,0.01,Wunderground v.1.15,2013-02-15 03:17:00,
2013-02-14 22:22:00,43.8,32.4,30.07,NW,311,5.0,5.0,64,0.00,,,0.01,Wunderground v.1.15,2013-02-15 03:22:00,
2013-02-14 22:27:00,44.1,32.3,30.07,NW,310,3.0,7.0,63,0.00,,,0.01,Wunderground v.1.15,2013-02-15 03:27:00,
2013-02-14 22:32:00,43.9,32.1,30.07,NW,310,4.0,5.0,63,0.00,,,0.01,Wunderground v.1.15,2013-02-15 03:32:00,
2013-02-14 22:37:00,43.9,32.1,30.07,NW,311,4.0,7.0,63,0.00,,,0.01,Wunderground v.1.15,2013-02-15 03:37:00,
2013-02-14 22:42:00,44.1,31.9,30.07,NW,311,4.0,6.0,62,0.00,,,0.01,Wunderground v.1.15,2013-02-15 03:42:00,
2013-02-14 22:47:00,43.9,32.1,30.07,NW,311,3.0,6.0,63,0.00,,,0.01,Wunderground v.1.15,2013-02-15 03:47:00,
2013-02-14 22:52:00,43.9,31.7,30.07,NW,311,3.0,5.0,62,0.00,,,0.01,Wunderground v.1.15,2013-02-15 03:52:00,
2013-02-14 22:57:00,44.1,31.9,30.07,NW,312,2.0,6.0,62,0.00,,,0.01,Wunderground v.1.15,2013-02-15 03:57:00,
2013-02-14 23:02:00,43.9,31.7,30.07,NW,312,3.0,5.0,62,0.00,,,0.01,Wunderground v.1.15,2013-02-15 04:02:00,
2013-02-14 23:07:00,43.9,31.7,30.07,NW,312,2.0,5.0,62,0.00,,,0.01,Wunderground v.1.15,2013-02-15 04:07:00,
2013-02-14 23:12:00,44.1,31.5,30.07,NW,312,3.0,6.0,61,0.00,,,0.01,Wunderground v.1.15,2013-02-15 04:12:00,
2013-02-14 23:17:00,43.9,31.7,30.07,NW,312,3.0,6.0,62,0.00,,,0.01,Wunderground v.1.15,2013-02-15 04:17:00,
2013-02-14 23:22:00,43.6,31.4,30.07,NW,314,3.0,5.0,62,0.00,,,0.01,Wunderground v.1.15,2013-02-15 04:22:00,
2013-02-14 23:27:00,43.9,31.3,30.06,NW,315,4.0,6.0,61,0.00,,,0.01,Wunderground v.1.15,2013-02-15 04:27:00,
2013-02-14 23:32:00,43.9,31.3,30.06,NW,315,5.0,6.0,61,0.00,,,0.01,Wunderground v.1.15,2013-02-15 04:32:00,
2013-02-14 23:37:00,44.1,31.5,30.06,NW,315,2.0,6.0,61,0.00,,,0.01,Wunderground v.1.15,2013-02-15 04:37:00,
2013-02-14 23:42:00,44.1,31.1,30.06,NW,314,5.0,6.0,60,0.00,,,0.01,Wunderground v.1.15,2013-02-15 04:42:00,
2013-02-14 23:47:00,44.2,31.2,30.06,WNW,299,3.0,7.0,60,0.00,,,0.01,Wunderground v.1.15,2013-02-15 04:47:00,
2013-02-14 23:52:00,44.2,31.2,30.06,WNW,301,2.0,4.0,60,0.00,,,0.01,Wunderground v.1.15,2013-02-15 04:52:00,
2013-02-14 23:57:00,44.2,31.2,30.06,WNW,301,2.0,5.0,60,0.00,,,0.01,Wunderground v.1.15,2013-02-15 04:57:00,